sensor_id;sensor_type;location;lat;lon;timestamp;pressure;altitude;pressure_sealevel;temperature;humidity
69909;BME280;57190;47.918;8.112;2023-05-01T00:01:03;90755.78;;;8.73;70.33
69909;BME280;57190;47.918;8.112;2023-05-01T00:03:30;90754.19;;;8.72;70.38
69909;BME280;57190;47.918;8.112;2023-05-01T00:06:02;90748.84;;;8.72;69.97
69909;BME280;57190;47.918;8.112;2023-05-01T00:08:30;90754.19;;;8.72;70.06
69909;BME280;57190;47.918;8.112;2023-05-01T00:10:56;90752.34;;;8.73;70.19
69909;BME280;57190;47.918;8.112;2023-05-01T00:13:22;90752.56;;;8.71;70.41
69909;BME280;57190;47.918;8.112;2023-05-01T00:15:49;90741.94;;;8.71;70.72
69909;BME280;57190;47.918;8.112;2023-05-01T00:18:14;90741.38;;;8.69;70.48
69909;BME280;57190;47.918;8.112;2023-05-01T00:20:41;90733.69;;;8.68;70.13
69909;BME280;57190;47.918;8.112;2023-05-01T00:23:06;90732.88;;;8.67;70.46
69909;BME280;57190;47.918;8.112;2023-05-01T00:25:33;90734.72;;;8.67;70.49
69909;BME280;57190;47.918;8.112;2023-05-01T00:27:58;90727.81;;;8.65;70.92
69909;BME280;57190;47.918;8.112;2023-05-01T00:30:24;90724.91;;;8.67;70.88
69909;BME280;57190;47.918;8.112;2023-05-01T00:32:51;90724.38;;;8.65;70.77
69909;BME280;57190;47.918;8.112;2023-05-01T00:35:20;90720.09;;;8.64;70.66
69909;BME280;57190;47.918;8.112;2023-05-01T00:37:45;90720.59;;;8.61;71.16
69909;BME280;57190;47.918;8.112;2023-05-01T00:40:12;90714.22;;;8.57;71.42
69909;BME280;57190;47.918;8.112;2023-05-01T00:42:37;90708.91;;;8.57;71.23
69909;BME280;57190;47.918;8.112;2023-05-01T00:45:05;90710.25;;;8.59;70.77
69909;BME280;57190;47.918;8.112;2023-05-01T00:47:32;90711.56;;;8.57;70.86
69909;BME280;57190;47.918;8.112;2023-05-01T00:49:59;90705.97;;;8.53;71.13
69909;BME280;57190;47.918;8.112;2023-05-01T00:52:25;90706.22;;;8.52;71.63
69909;BME280;57190;47.918;8.112;2023-05-01T00:54:50;90702.75;;;8.51;71.48
69909;BME280;57190;47.918;8.112;2023-05-01T00:57:20;90692.63;;;8.48;70.86
69909;BME280;57190;47.918;8.112;2023-05-01T00:59:46;90696.81;;;8.39;71.45
69909;BME280;57190;47.918;8.112;2023-05-01T01:02:12;90702.91;;;8.34;71.87
69909;BME280;57190;47.918;8.112;2023-05-01T01:04:41;90691.47;;;8.33;71.44
69909;BME280;57190;47.918;8.112;2023-05-01T01:07:36;90686.97;;;8.34;71.35
69909;BME280;57190;47.918;8.112;2023-05-01T01:10:26;90687.78;;;8.40;71.13
69909;BME280;57190;47.918;8.112;2023-05-01T01:13:13;90677.44;;;8.43;70.57
69909;BME280;57190;47.918;8.112;2023-05-01T01:15:58;90676.63;;;8.43;70.81
69909;BME280;57190;47.918;8.112;2023-05-01T01:32:08;90670.66;;;8.20;72.14
69909;BME280;57190;47.918;8.112;2023-05-01T01:34:39;90666.13;;;8.15;72.40
69909;BME280;57190;47.918;8.112;2023-05-01T01:37:27;90659.22;;;8.19;72.42
69909;BME280;57190;47.918;8.112;2023-05-01T01:40:06;90666.69;;;8.23;72.03
69909;BME280;57190;47.918;8.112;2023-05-01T01:42:46;90668.84;;;8.26;72.00
69909;BME280;57190;47.918;8.112;2023-05-01T01:45:18;90654.25;;;8.28;71.61
69909;BME280;57190;47.918;8.112;2023-05-01T01:47:46;90657.19;;;8.32;71.08
69909;BME280;57190;47.918;8.112;2023-05-01T01:50:13;90659.34;;;8.35;71.08
69909;BME280;57190;47.918;8.112;2023-05-01T01:52:41;90660.63;;;8.32;71.10
69909;BME280;57190;47.918;8.112;2023-05-01T01:55:11;90655.56;;;8.31;71.56
69909;BME280;57190;47.918;8.112;2023-05-01T01:57:38;90661.16;;;8.29;71.23
69909;BME280;57190;47.918;8.112;2023-05-01T02:00:06;90646.00;;;8.30;71.24
69909;BME280;57190;47.918;8.112;2023-05-01T02:02:37;90655.84;;;8.34;70.84
69909;BME280;57190;47.918;8.112;2023-05-01T02:05:09;90645.50;;;8.38;70.75
69909;BME280;57190;47.918;8.112;2023-05-01T02:07:37;90647.91;;;8.40;70.97
69909;BME280;57190;47.918;8.112;2023-05-01T02:10:05;90653.22;;;8.40;70.82
69909;BME280;57190;47.918;8.112;2023-05-01T02:12:33;90650.25;;;8.31;71.77
69909;BME280;57190;47.918;8.112;2023-05-01T02:14:59;90645.94;;;8.14;72.89
69909;BME280;57190;47.918;8.112;2023-05-01T02:17:27;90650.13;;;8.10;73.05
69909;BME280;57190;47.918;8.112;2023-05-01T02:19:53;90644.59;;;8.12;73.00
69909;BME280;57190;47.918;8.112;2023-05-01T02:22:20;90643.00;;;8.16;73.06
69909;BME280;57190;47.918;8.112;2023-05-01T02:24:47;90648.06;;;8.17;73.27
69909;BME280;57190;47.918;8.112;2023-05-01T02:27:20;90645.94;;;8.19;73.13
69909;BME280;57190;47.918;8.112;2023-05-01T02:29:48;90640.63;;;8.14;73.26
69909;BME280;57190;47.918;8.112;2023-05-01T02:32:13;90641.66;;;8.13;73.82
69909;BME280;57190;47.918;8.112;2023-05-01T02:34:39;90648.59;;;8.14;73.52
69909;BME280;57190;47.918;8.112;2023-05-01T02:37:07;90642.47;;;8.14;73.97
69909;BME280;57190;47.918;8.112;2023-05-01T02:39:35;90634.50;;;8.14;73.91
69909;BME280;57190;47.918;8.112;2023-05-01T02:42:02;90634.25;;;8.15;74.36
69909;BME280;57190;47.918;8.112;2023-05-01T02:44:39;90639.34;;;8.22;74.75
69909;BME280;57190;47.918;8.112;2023-05-01T02:47:07;90627.88;;;8.22;74.35
69909;BME280;57190;47.918;8.112;2023-05-01T02:49:35;90633.47;;;8.20;74.30
69909;BME280;57190;47.918;8.112;2023-05-01T02:52:02;90625.72;;;8.13;74.75
69909;BME280;57190;47.918;8.112;2023-05-01T02:54:29;90626.00;;;8.12;74.30
69909;BME280;57190;47.918;8.112;2023-05-01T02:56:55;90621.47;;;8.12;74.61
69909;BME280;57190;47.918;8.112;2023-05-01T02:59:22;90623.34;;;8.12;74.66
69909;BME280;57190;47.918;8.112;2023-05-01T03:01:47;90627.81;;;8.06;75.12
69909;BME280;57190;47.918;8.112;2023-05-01T03:04:13;90618.75;;;8.02;75.64
69909;BME280;57190;47.918;8.112;2023-05-01T03:06:38;90624.38;;;8.06;75.45
69909;BME280;57190;47.918;8.112;2023-05-01T03:09:04;90620.41;;;8.08;75.52
69909;BME280;57190;47.918;8.112;2023-05-01T03:11:30;90620.13;;;8.10;75.55
69909;BME280;57190;47.918;8.112;2023-05-01T03:13:55;90613.75;;;8.11;75.49
69909;BME280;57190;47.918;8.112;2023-05-01T03:16:21;90619.88;;;8.11;75.75
69909;BME280;57190;47.918;8.112;2023-05-01T03:18:46;90609.50;;;8.10;76.25
69909;BME280;57190;47.918;8.112;2023-05-01T03:21:12;90616.16;;;8.12;76.04
69909;BME280;57190;47.918;8.112;2023-05-01T03:23:38;90618.53;;;8.09;76.29
69909;BME280;57190;47.918;8.112;2023-05-01T03:26:03;90615.59;;;8.05;76.64
69909;BME280;57190;47.918;8.112;2023-05-01T03:29:06;90617.97;;;8.01;77.27
69909;BME280;57190;47.918;8.112;2023-05-01T03:31:32;90611.59;;;8.02;77.54
69909;BME280;57190;47.918;8.112;2023-05-01T03:33:57;90609.19;;;8.01;77.64
69909;BME280;57190;47.918;8.112;2023-05-01T03:36:23;90615.56;;;8.00;77.60
69909;BME280;57190;47.918;8.112;2023-05-01T03:38:49;90607.59;;;8.00;77.97
69909;BME280;57190;47.918;8.112;2023-05-01T03:41:15;90614.72;;;7.94;78.34
69909;BME280;57190;47.918;8.112;2023-05-01T03:43:41;90618.72;;;7.92;78.50
69909;BME280;57190;47.918;8.112;2023-05-01T03:46:06;90617.59;;;7.87;78.99
69909;BME280;57190;47.918;8.112;2023-05-01T03:48:32;90607.53;;;7.84;79.42
69909;BME280;57190;47.918;8.112;2023-05-01T03:50:57;90613.88;;;7.83;79.93
69909;BME280;57190;47.918;8.112;2023-05-01T03:53:23;90618.13;;;7.84;79.74
69909;BME280;57190;47.918;8.112;2023-05-01T03:55:49;90613.63;;;7.85;79.84
69909;BME280;57190;47.918;8.112;2023-05-01T03:58:14;90616.53;;;7.83;80.00
69909;BME280;57190;47.918;8.112;2023-05-01T04:00:40;90614.09;;;7.77;80.36
69909;BME280;57190;47.918;8.112;2023-05-01T04:03:06;90616.47;;;7.73;80.79
69909;BME280;57190;47.918;8.112;2023-05-01T04:05:31;90618.31;;;7.72;81.08
69909;BME280;57190;47.918;8.112;2023-05-01T04:07:57;90610.59;;;7.71;80.99
69909;BME280;57190;47.918;8.112;2023-05-01T04:10:23;90612.47;;;7.70;81.42
69909;BME280;57190;47.918;8.112;2023-05-01T04:12:49;90614.06;;;7.71;81.51
69909;BME280;57190;47.918;8.112;2023-05-01T04:15:14;90614.88;;;7.77;81.28
69909;BME280;57190;47.918;8.112;2023-05-01T04:17:40;90616.75;;;7.77;81.29
69909;BME280;57190;47.918;8.112;2023-05-01T04:20:08;90617.81;;;7.76;81.24
69909;BME280;57190;47.918;8.112;2023-05-01T04:22:35;90612.75;;;7.74;81.77
69909;BME280;57190;47.918;8.112;2023-05-01T04:25:01;90618.63;;;7.76;81.59
69909;BME280;57190;47.918;8.112;2023-05-01T04:27:26;90621.50;;;7.75;81.66
69909;BME280;57190;47.918;8.112;2023-05-01T04:29:52;90620.19;;;7.77;81.44
69909;BME280;57190;47.918;8.112;2023-05-01T04:32:17;90616.75;;;7.77;81.63
69909;BME280;57190;47.918;8.112;2023-05-01T04:34:43;90617.00;;;7.75;81.71
69909;BME280;57190;47.918;8.112;2023-05-01T04:37:09;90613.31;;;7.76;81.64
69909;BME280;57190;47.918;8.112;2023-05-01T04:39:35;90618.34;;;7.78;81.86
69909;BME280;57190;47.918;8.112;2023-05-01T04:42:01;90614.34;;;7.75;81.90
69909;BME280;57190;47.918;8.112;2023-05-01T04:44:27;90624.44;;;7.73;82.39
69909;BME280;57190;47.918;8.112;2023-05-01T04:46:52;90615.91;;;7.71;82.67
69909;BME280;57190;47.918;8.112;2023-05-01T04:49:18;90610.88;;;7.75;82.56
69909;BME280;57190;47.918;8.112;2023-05-01T04:51:43;90619.13;;;7.78;82.88
69909;BME280;57190;47.918;8.112;2023-05-01T04:54:09;90622.09;;;7.82;82.48
69909;BME280;57190;47.918;8.112;2023-05-01T04:56:35;90619.19;;;7.83;82.52
69909;BME280;57190;47.918;8.112;2023-05-01T04:59:00;90620.53;;;7.86;82.74
69909;BME280;57190;47.918;8.112;2023-05-01T05:01:26;90623.47;;;7.90;83.11
69909;BME280;57190;47.918;8.112;2023-05-01T05:03:51;90621.09;;;7.93;82.91
69909;BME280;57190;47.918;8.112;2023-05-01T05:06:17;90624.59;;;7.99;82.69
69909;BME280;57190;47.918;8.112;2023-05-01T05:08:43;90626.47;;;8.03;82.16
69909;BME280;57190;47.918;8.112;2023-05-01T05:11:08;90632.34;;;8.06;82.16
69909;BME280;57190;47.918;8.112;2023-05-01T05:13:33;90628.38;;;8.08;82.28
69909;BME280;57190;47.918;8.112;2023-05-01T05:15:59;90624.41;;;8.16;81.82
69909;BME280;57190;47.918;8.112;2023-05-01T05:18:25;90626.81;;;8.17;81.48
69909;BME280;57190;47.918;8.112;2023-05-01T05:20:50;90622.56;;;8.22;81.77
69909;BME280;57190;47.918;8.112;2023-05-01T05:23:16;90624.44;;;8.21;81.93
69909;BME280;57190;47.918;8.112;2023-05-01T05:25:41;90629.75;;;8.21;81.78
69909;BME280;57190;47.918;8.112;2023-05-01T05:28:07;90626.84;;;8.28;81.50
69909;BME280;57190;47.918;8.112;2023-05-01T05:33:53;90630.13;;;8.40;81.60
69909;BME280;57190;47.918;8.112;2023-05-01T05:36:19;90637.81;;;8.42;81.01
69909;BME280;57190;47.918;8.112;2023-05-01T05:38:44;90630.38;;;8.39;80.78
69909;BME280;57190;47.918;8.112;2023-05-01T05:41:10;90638.31;;;8.33;81.35
69909;BME280;57190;47.918;8.112;2023-05-01T05:43:36;90633.00;;;8.33;81.54
69909;BME280;57190;47.918;8.112;2023-05-01T05:46:01;90633.28;;;8.37;81.31
69909;BME280;57190;47.918;8.112;2023-05-01T05:48:27;90634.31;;;8.36;81.84
69909;BME280;57190;47.918;8.112;2023-05-01T05:50:53;90633.56;;;8.41;81.73
69909;BME280;57190;47.918;8.112;2023-05-01T05:53:19;90634.66;;;8.45;81.35
69909;BME280;57190;47.918;8.112;2023-05-01T05:55:48;90637.63;;;8.54;81.19
69909;BME280;57190;47.918;8.112;2023-05-01T05:58:14;90627.81;;;8.59;81.71
69909;BME280;57190;47.918;8.112;2023-05-01T06:00:47;90638.50;;;8.70;81.01
69909;BME280;57190;47.918;8.112;2023-05-01T06:03:14;90637.22;;;8.83;80.41
69909;BME280;57190;47.918;8.112;2023-05-01T06:05:41;90635.66;;;8.92;81.02
69909;BME280;57190;47.918;8.112;2023-05-01T06:08:07;90632.47;;;9.00;80.49
69909;BME280;57190;47.918;8.112;2023-05-01T06:10:34;90633.25;;;9.01;79.93
69909;BME280;57190;47.918;8.112;2023-05-01T06:13:01;90629.53;;;8.96;80.42
69909;BME280;57190;47.918;8.112;2023-05-01T06:15:26;90634.59;;;8.93;80.16
69909;BME280;57190;47.918;8.112;2023-05-01T06:17:52;90636.19;;;8.94;80.46
69909;BME280;57190;47.918;8.112;2023-05-01T06:20:17;90628.47;;;8.98;80.83
69909;BME280;57190;47.918;8.112;2023-05-01T06:22:43;90634.84;;;9.02;80.96
69909;BME280;57190;47.918;8.112;2023-05-01T06:25:09;90622.38;;;9.02;81.35
69909;BME280;57190;47.918;8.112;2023-05-01T06:27:34;90635.94;;;9.06;81.17
69909;BME280;57190;47.918;8.112;2023-05-01T06:30:00;90629.28;;;9.08;80.82
69909;BME280;57190;47.918;8.112;2023-05-01T06:32:26;90627.19;;;9.10;80.35
69909;BME280;57190;47.918;8.112;2023-05-01T06:34:51;90621.56;;;9.07;80.17
69909;BME280;57190;47.918;8.112;2023-05-01T06:37:17;90626.63;;;9.08;79.75
69909;BME280;57190;47.918;8.112;2023-05-01T06:39:42;90630.63;;;9.06;80.67
69909;BME280;57190;47.918;8.112;2023-05-01T06:42:08;90630.09;;;9.09;80.38
69909;BME280;57190;47.918;8.112;2023-05-01T06:44:36;90627.97;;;9.11;80.31
69909;BME280;57190;47.918;8.112;2023-05-01T06:47:01;90631.94;;;9.13;80.40
69909;BME280;57190;47.918;8.112;2023-05-01T06:49:27;90634.63;;;9.19;80.87
69909;BME280;57190;47.918;8.112;2023-05-01T06:51:52;90643.69;;;9.18;80.86
69909;BME280;57190;47.918;8.112;2023-05-01T06:54:18;90638.38;;;9.18;80.64
69909;BME280;57190;47.918;8.112;2023-05-01T06:56:43;90641.81;;;9.18;80.74
69909;BME280;57190;47.918;8.112;2023-05-01T06:59:09;90638.88;;;9.15;80.67
69909;BME280;57190;47.918;8.112;2023-05-01T07:01:34;90639.97;;;9.19;80.56
69909;BME280;57190;47.918;8.112;2023-05-01T07:04:00;90644.75;;;9.22;80.77
69909;BME280;57190;47.918;8.112;2023-05-01T07:06:25;90646.34;;;9.23;80.79
69909;BME280;57190;47.918;8.112;2023-05-01T07:08:51;90642.34;;;9.25;80.69
69909;BME280;57190;47.918;8.112;2023-05-01T07:11:17;90642.63;;;9.29;79.81
69909;BME280;57190;47.918;8.112;2023-05-01T07:13:43;90645.28;;;9.29;80.09
69909;BME280;57190;47.918;8.112;2023-05-01T07:16:08;90649.53;;;9.30;80.45
69909;BME280;57190;47.918;8.112;2023-05-01T07:18:34;90647.69;;;9.31;80.73
69909;BME280;57190;47.918;8.112;2023-05-01T07:20:59;90645.81;;;9.31;80.50
69909;BME280;57190;47.918;8.112;2023-05-01T07:23:25;90651.69;;;9.38;81.09
69909;BME280;57190;47.918;8.112;2023-05-01T07:25:51;90649.28;;;9.42;80.63
69909;BME280;57190;47.918;8.112;2023-05-01T07:28:17;90651.44;;;9.45;80.70
69909;BME280;57190;47.918;8.112;2023-05-01T07:30:44;90658.63;;;9.50;80.82
69909;BME280;57190;47.918;8.112;2023-05-01T07:33:10;90653.56;;;9.48;80.87
69909;BME280;57190;47.918;8.112;2023-05-01T07:35:36;90658.06;;;9.53;81.24
69909;BME280;57190;47.918;8.112;2023-05-01T07:38:02;90651.69;;;9.54;81.09
69909;BME280;57190;47.918;8.112;2023-05-01T07:40:27;90654.38;;;9.59;80.86
69909;BME280;57190;47.918;8.112;2023-05-01T07:42:53;90656.22;;;9.58;80.88
69909;BME280;57190;47.918;8.112;2023-05-01T07:45:18;90656.75;;;9.60;81.11
69909;BME280;57190;47.918;8.112;2023-05-01T07:47:44;90658.88;;;9.58;80.50
69909;BME280;57190;47.918;8.112;2023-05-01T07:50:11;90650.91;;;9.64;80.65
69909;BME280;57190;47.918;8.112;2023-05-01T07:52:36;90653.84;;;9.67;80.92
69909;BME280;57190;47.918;8.112;2023-05-01T07:55:02;90661.81;;;9.72;80.53
69909;BME280;57190;47.918;8.112;2023-05-01T07:57:28;90657.31;;;9.73;80.86
69909;BME280;57190;47.918;8.112;2023-05-01T07:59:55;90662.09;;;9.71;80.68
69909;BME280;57190;47.918;8.112;2023-05-01T08:02:21;90665.00;;;9.64;80.45
69909;BME280;57190;47.918;8.112;2023-05-01T08:04:47;90659.69;;;9.59;80.63
69909;BME280;57190;47.918;8.112;2023-05-01T08:07:13;90665.81;;;9.54;80.93
69909;BME280;57190;47.918;8.112;2023-05-01T08:09:39;90668.22;;;9.51;81.66
69909;BME280;57190;47.918;8.112;2023-05-01T08:12:05;90670.84;;;9.46;81.50
69909;BME280;57190;47.918;8.112;2023-05-01T08:14:30;90678.84;;;9.40;81.53
69909;BME280;57190;47.918;8.112;2023-05-01T08:16:56;90671.13;;;9.39;81.54
69909;BME280;57190;47.918;8.112;2023-05-01T08:19:22;90685.19;;;9.29;81.77
69909;BME280;57190;47.918;8.112;2023-05-01T08:21:48;90677.50;;;9.27;81.97
69909;BME280;57190;47.918;8.112;2023-05-01T08:24:13;90684.97;;;9.31;81.97
69909;BME280;57190;47.918;8.112;2023-05-01T08:26:39;90682.03;;;9.32;81.45
69909;BME280;57190;47.918;8.112;2023-05-01T08:29:04;90681.50;;;9.35;82.04
69909;BME280;57190;47.918;8.112;2023-05-01T08:31:30;90686.84;;;9.40;81.47
69909;BME280;57190;47.918;8.112;2023-05-01T08:33:55;90675.66;;;9.49;81.58
69909;BME280;57190;47.918;8.112;2023-05-01T08:36:21;90679.94;;;9.60;81.31
69909;BME280;57190;47.918;8.112;2023-05-01T08:38:47;90678.34;;;9.69;81.23
69909;BME280;57190;47.918;8.112;2023-05-01T08:41:20;90677.53;;;9.79;80.45
69909;BME280;57190;47.918;8.112;2023-05-01T08:43:46;90683.69;;;9.85;80.71
69909;BME280;57190;47.918;8.112;2023-05-01T08:46:14;90684.72;;;9.89;80.41
69909;BME280;57190;47.918;8.112;2023-05-01T08:48:46;90681.00;;;9.90;80.58
69909;BME280;57190;47.918;8.112;2023-05-01T08:51:13;90682.06;;;9.89;80.35
69909;BME280;57190;47.918;8.112;2023-05-01T08:53:42;90682.88;;;9.89;80.84
69909;BME280;57190;47.918;8.112;2023-05-01T08:56:09;90679.13;;;9.96;80.39
69909;BME280;57190;47.918;8.112;2023-05-01T08:58:38;90681.25;;;10.04;80.69
69909;BME280;57190;47.918;8.112;2023-05-01T09:01:06;90684.97;;;10.08;80.06
69909;BME280;57190;47.918;8.112;2023-05-01T09:03:34;90692.47;;;10.06;80.18
69909;BME280;57190;47.918;8.112;2023-05-01T09:06:02;90680.75;;;10.07;79.49
69909;BME280;57190;47.918;8.112;2023-05-01T09:08:28;90682.31;;;10.08;79.62
69909;BME280;57190;47.918;8.112;2023-05-01T09:10:55;90688.47;;;10.19;78.75
69909;BME280;57190;47.918;8.112;2023-05-01T09:13:24;90692.72;;;10.25;78.59
69909;BME280;57190;47.918;8.112;2023-05-01T09:15:50;90684.69;;;10.35;78.73
69909;BME280;57190;47.918;8.112;2023-05-01T09:18:16;90691.91;;;10.40;78.74
69909;BME280;57190;47.918;8.112;2023-05-01T09:20:42;90693.22;;;10.48;77.64
69909;BME280;57190;47.918;8.112;2023-05-01T09:23:10;90686.28;;;10.57;77.55
69909;BME280;57190;47.918;8.112;2023-05-01T09:25:36;90692.38;;;10.63;77.60
69909;BME280;57190;47.918;8.112;2023-05-01T09:28:07;90688.38;;;10.65;77.23
69909;BME280;57190;47.918;8.112;2023-05-01T09:30:34;90691.31;;;10.69;77.13
69909;BME280;57190;47.918;8.112;2023-05-01T09:33:08;90681.69;;;10.73;76.92
69909;BME280;57190;47.918;8.112;2023-05-01T09:35:54;90692.88;;;10.80;76.13
69909;BME280;57190;47.918;8.112;2023-05-01T09:38:22;90689.91;;;10.87;75.69
69909;BME280;57190;47.918;8.112;2023-05-01T09:40:48;90691.22;;;10.95;75.69
69909;BME280;57190;47.918;8.112;2023-05-01T09:43:26;90698.09;;;11.11;75.48
69909;BME280;57190;47.918;8.112;2023-05-01T09:46:05;90693.81;;;11.15;75.58
69909;BME280;57190;47.918;8.112;2023-05-01T09:48:31;90701.03;;;11.10;75.15
69909;BME280;57190;47.918;8.112;2023-05-01T09:50:58;90699.69;;;11.12;75.19
69909;BME280;57190;47.918;8.112;2023-05-01T09:53:37;90699.72;;;11.02;73.72
69909;BME280;57190;47.918;8.112;2023-05-01T09:56:03;90702.13;;;10.98;74.47
69909;BME280;57190;47.918;8.112;2023-05-01T09:58:29;90699.44;;;11.09;75.54
69909;BME280;57190;47.918;8.112;2023-05-01T10:00:54;90703.09;;;11.23;75.42
69909;BME280;57190;47.918;8.112;2023-05-01T10:03:20;90700.59;;;11.42;75.17
69909;BME280;57190;47.918;8.112;2023-05-01T10:05:47;90695.91;;;11.69;73.61
69909;BME280;57190;47.918;8.112;2023-05-01T10:15:00;90703.34;;;12.17;68.98
69909;BME280;57190;47.918;8.112;2023-05-01T10:17:30;90696.19;;;12.07;70.24
69909;BME280;57190;47.918;8.112;2023-05-01T10:19:57;90698.66;;;11.98;69.54
69909;BME280;57190;47.918;8.112;2023-05-01T10:22:22;90697.53;;;12.04;70.63
69909;BME280;57190;47.918;8.112;2023-05-01T10:24:48;90698.06;;;12.06;70.67
69909;BME280;57190;47.918;8.112;2023-05-01T10:27:14;90697.19;;;12.16;70.41
69909;BME280;57190;47.918;8.112;2023-05-01T10:29:41;90696.88;;;12.18;69.22
69909;BME280;57190;47.918;8.112;2023-05-01T10:35:36;90685.22;;;12.67;66.98
69909;BME280;57190;47.918;8.112;2023-05-01T10:38:05;90685.66;;;12.99;66.29
69909;BME280;57190;47.918;8.112;2023-05-01T10:43:18;90693.03;;;13.56;64.76
69909;BME280;57190;47.918;8.112;2023-05-01T10:45:47;90686.44;;;13.48;63.66
69909;BME280;57190;47.918;8.112;2023-05-01T10:53:49;90684.03;;;14.04;61.25
69909;BME280;57190;47.918;8.112;2023-05-01T10:59:00;90680.66;;;14.12;62.74
69909;BME280;57190;47.918;8.112;2023-05-01T11:01:39;90676.16;;;13.93;61.98
69909;BME280;57190;47.918;8.112;2023-05-01T11:09:40;90673.09;;;13.81;63.96
69909;BME280;57190;47.918;8.112;2023-05-01T11:12:07;90674.41;;;13.83;62.71
69909;BME280;57190;47.918;8.112;2023-05-01T11:17:49;90673.63;;;13.83;61.74
69909;BME280;57190;47.918;8.112;2023-05-01T11:22:52;90674.13;;;13.66;60.05
69909;BME280;57190;47.918;8.112;2023-05-01T11:25:25;90678.81;;;13.55;61.55
69909;BME280;57190;47.918;8.112;2023-05-01T11:27:58;90670.56;;;13.51;61.40
69909;BME280;57190;47.918;8.112;2023-05-01T11:33:47;90672.63;;;13.35;61.14
69909;BME280;57190;47.918;8.112;2023-05-01T11:36:13;90675.69;;;13.29;61.66
69909;BME280;57190;47.918;8.112;2023-05-01T11:38:56;90674.59;;;13.30;64.18
69909;BME280;57190;47.918;8.112;2023-05-01T11:41:24;90673.94;;;13.38;64.01
69909;BME280;57190;47.918;8.112;2023-05-01T11:43:58;90676.56;;;13.43;63.63
69909;BME280;57190;47.918;8.112;2023-05-01T11:46:29;90679.88;;;13.35;63.68
69909;BME280;57190;47.918;8.112;2023-05-01T11:48:59;90673.47;;;13.31;63.58
69909;BME280;57190;47.918;8.112;2023-05-01T11:51:28;90676.91;;;13.36;64.79
69909;BME280;57190;47.918;8.112;2023-05-01T11:54:01;90675.50;;;13.44;64.60
69909;BME280;57190;47.918;8.112;2023-05-01T11:56:30;90670.75;;;13.36;63.50
69909;BME280;57190;47.918;8.112;2023-05-01T11:58:59;90670.22;;;13.15;62.86
69909;BME280;57190;47.918;8.112;2023-05-01T12:01:37;90664.41;;;13.08;63.97
69909;BME280;57190;47.918;8.112;2023-05-01T12:04:05;90667.00;;;12.94;62.70
69909;BME280;57190;47.918;8.112;2023-05-01T12:06:45;90662.72;;;12.93;63.65
69909;BME280;57190;47.918;8.112;2023-05-01T12:09:19;90671.03;;;12.91;62.90
69909;BME280;57190;47.918;8.112;2023-05-01T12:11:47;90664.13;;;12.85;63.16
69909;BME280;57190;47.918;8.112;2023-05-01T12:14:13;90671.25;;;12.95;63.64
69909;BME280;57190;47.918;8.112;2023-05-01T12:16:40;90669.56;;;13.04;63.37
69909;BME280;57190;47.918;8.112;2023-05-01T12:19:06;90669.19;;;13.11;62.15
69909;BME280;57190;47.918;8.112;2023-05-01T12:21:32;90671.28;;;13.38;62.60
69909;BME280;57190;47.918;8.112;2023-05-01T12:24:15;90667.53;;;13.77;62.26
69909;BME280;57190;47.918;8.112;2023-05-01T12:26:43;90660.03;;;14.12;61.21
69909;BME280;57190;47.918;8.112;2023-05-01T12:29:09;90661.41;;;14.43;59.25
69909;BME280;57190;47.918;8.112;2023-05-01T12:31:36;90661.59;;;14.80;58.91
69909;BME280;57190;47.918;8.112;2023-05-01T12:34:03;90654.00;;;14.82;57.54
69909;BME280;57190;47.918;8.112;2023-05-01T12:36:32;90660.38;;;14.86;58.10
69909;BME280;57190;47.918;8.112;2023-05-01T12:41:47;90658.31;;;14.69;59.97
69909;BME280;57190;47.918;8.112;2023-05-01T12:44:20;90656.78;;;14.76;57.67
69909;BME280;57190;47.918;8.112;2023-05-01T12:47:00;90651.44;;;14.76;55.93
69909;BME280;57190;47.918;8.112;2023-05-01T12:49:27;90653.94;;;15.15;56.32
69909;BME280;57190;47.918;8.112;2023-05-01T12:51:56;90651.75;;;15.53;55.78
69909;BME280;57190;47.918;8.112;2023-05-01T12:54:27;90648.13;;;15.86;55.23
69909;BME280;57190;47.918;8.112;2023-05-01T12:57:04;90648.13;;;15.86;55.29
69909;BME280;57190;47.918;8.112;2023-05-01T12:59:31;90649.13;;;15.76;54.56
69909;BME280;57190;47.918;8.112;2023-05-01T13:02:02;90644.50;;;15.54;56.07
69909;BME280;57190;47.918;8.112;2023-05-01T13:04:28;90646.69;;;15.52;53.83
69909;BME280;57190;47.918;8.112;2023-05-01T13:06:55;90649.22;;;15.34;54.56
69909;BME280;57190;47.918;8.112;2023-05-01T13:09:22;90650.13;;;15.16;53.62
69909;BME280;57190;47.918;8.112;2023-05-01T13:11:58;90647.16;;;14.89;53.99
69909;BME280;57190;47.918;8.112;2023-05-01T13:14:24;90653.72;;;14.83;54.86
69909;BME280;57190;47.918;8.112;2023-05-01T13:16:50;90653.22;;;14.81;55.80
69909;BME280;57190;47.918;8.112;2023-05-01T13:19:26;90653.72;;;14.69;55.72
69909;BME280;57190;47.918;8.112;2023-05-01T13:21:56;90654.06;;;14.62;56.59
69909;BME280;57190;47.918;8.112;2023-05-01T13:24:42;90650.19;;;14.55;56.13
69909;BME280;57190;47.918;8.112;2023-05-01T13:27:11;90655.63;;;14.50;56.42
69909;BME280;57190;47.918;8.112;2023-05-01T13:29:38;90655.53;;;14.41;56.68
69909;BME280;57190;47.918;8.112;2023-05-01T13:32:04;90656.69;;;14.21;56.78
69909;BME280;57190;47.918;8.112;2023-05-01T13:34:32;90658.44;;;14.11;56.46
69909;BME280;57190;47.918;8.112;2023-05-01T13:36:59;90654.81;;;14.02;57.14
69909;BME280;57190;47.918;8.112;2023-05-01T13:39:25;90659.31;;;14.07;57.46
69909;BME280;57190;47.918;8.112;2023-05-01T13:41:51;90660.81;;;14.13;57.58
69909;BME280;57190;47.918;8.112;2023-05-01T13:44:18;90666.53;;;14.06;57.68
69909;BME280;57190;47.918;8.112;2023-05-01T13:46:44;90656.44;;;13.84;56.81
69909;BME280;57190;47.918;8.112;2023-05-01T13:49:11;90658.09;;;13.80;56.20
69909;BME280;57190;47.918;8.112;2023-05-01T13:51:40;90658.63;;;13.82;57.43
69909;BME280;57190;47.918;8.112;2023-05-01T13:54:07;90660.13;;;13.88;57.28
69909;BME280;57190;47.918;8.112;2023-05-01T13:56:36;90667.22;;;13.79;56.41
69909;BME280;57190;47.918;8.112;2023-05-01T13:59:02;90659.28;;;13.74;55.30
69909;BME280;57190;47.918;8.112;2023-05-01T14:01:29;90657.09;;;13.76;56.32
69909;BME280;57190;47.918;8.112;2023-05-01T14:03:54;90660.44;;;13.87;56.11
69909;BME280;57190;47.918;8.112;2023-05-01T14:06:24;90657.59;;;13.97;56.08